createdAt,value
2023-03-22T00:01:47.207Z,4.33
2023-03-22T00:04:21.972Z,5.60
2023-03-22T00:07:00.583Z,4.80
2023-03-22T00:09:33.342Z,5.10
2023-03-22T00:12:01.990Z,4.43
2023-03-22T00:19:24.842Z,4.53
2023-03-22T00:21:55.218Z,4.53
2023-03-22T00:24:27.545Z,5.00
2023-03-22T00:26:54.846Z,5.30
2023-03-22T00:29:31.278Z,5.07
2023-03-22T00:32:01.383Z,4.90
2023-03-22T00:34:32.806Z,5.80
2023-03-22T00:42:06.315Z,5.60
2023-03-22T00:44:34.381Z,5.70
2023-03-22T00:47:02.095Z,5.53
2023-03-22T00:49:30.752Z,6.70
2023-03-22T00:51:59.032Z,6.47
2023-03-22T00:54:26.882Z,5.70
2023-03-22T00:56:56.334Z,6.10
2023-03-22T01:02:33.781Z,6.30
2023-03-22T01:05:16.766Z,7.03
2023-03-22T01:07:45.713Z,6.10
2023-03-22T01:10:19.068Z,5.60
2023-03-22T01:12:47.409Z,6.37
2023-03-22T01:15:14.725Z,5.77
2023-03-22T01:17:58.025Z,6.53
2023-03-22T01:20:32.977Z,5.47
2023-03-22T01:23:19.351Z,7.17
2023-03-22T01:25:53.529Z,7.13
2023-03-22T01:28:21.030Z,5.70
2023-03-22T01:35:49.686Z,6.17
2023-03-22T01:38:17.524Z,6.27
2023-03-22T01:40:44.769Z,7.23
2023-03-22T01:43:14.693Z,6.50
2023-03-22T01:45:45.246Z,5.50
2023-03-22T01:48:20.327Z,5.70
2023-03-22T01:50:56.039Z,4.97
2023-03-22T02:00:53.259Z,5.87
2023-03-22T02:03:28.161Z,5.40
2023-03-22T02:05:55.962Z,5.50
2023-03-22T02:08:23.405Z,5.30
2023-03-22T02:10:51.429Z,5.33
2023-03-22T02:13:41.840Z,5.67
2023-03-22T02:16:23.349Z,6.50
2023-03-22T02:24:17.532Z,5.83
2023-03-22T02:27:19.081Z,7.37
2023-03-22T02:30:02.440Z,6.50
2023-03-22T02:33:02.436Z,6.90
2023-03-22T02:36:00.807Z,6.60
2023-03-22T02:39:07.832Z,6.53
2023-03-22T02:47:00.781Z,6.60
2023-03-22T02:49:36.702Z,6.40
2023-03-22T02:52:17.219Z,7.87
2023-03-22T02:54:54.412Z,6.13
2023-03-22T02:57:28.899Z,5.43
2023-03-22T02:59:58.170Z,6.70
2023-03-22T03:02:29.068Z,6.07
2023-03-22T03:05:05.124Z,5.73
2023-03-22T03:12:16.657Z,5.57
2023-03-22T03:14:45.418Z,5.37
2023-03-22T03:17:32.438Z,5.27
2023-03-22T03:20:14.195Z,4.10
2023-03-22T03:22:51.004Z,5.60
2023-03-22T03:25:32.659Z,4.30
2023-03-22T03:28:11.296Z,5.33
2023-03-22T03:30:44.426Z,4.33
2023-03-22T03:36:23.951Z,3.93
2023-03-22T03:38:56.400Z,4.00
2023-03-22T03:41:39.249Z,3.87
2023-03-22T03:44:08.149Z,3.63
2023-03-22T03:46:35.408Z,4.10
2023-03-22T03:49:07.318Z,4.50
2023-03-22T03:51:50.332Z,4.20
2023-03-22T03:54:21.317Z,4.50
2023-03-22T04:02:17.043Z,4.77
2023-03-22T04:04:47.240Z,5.10
2023-03-22T04:07:17.749Z,4.87
2023-03-22T04:09:45.463Z,5.97
2023-03-22T04:12:26.670Z,5.00
2023-03-22T04:14:56.573Z,4.17
2023-03-22T04:17:28.361Z,4.83
2023-03-22T04:19:56.330Z,5.33
2023-03-22T04:27:26.793Z,5.97
2023-03-22T04:29:57.509Z,4.67
2023-03-22T04:32:40.174Z,5.17
2023-03-22T04:35:08.139Z,5.17
2023-03-22T04:37:35.960Z,5.07
2023-03-22T04:40:09.098Z,4.43
2023-03-22T04:42:51.292Z,4.47
2023-03-22T04:45:18.450Z,4.57
2023-03-22T04:52:53.391Z,5.80
2023-03-22T04:55:20.558Z,5.53
2023-03-22T04:57:50.860Z,5.40
2023-03-22T05:00:22.025Z,6.13
2023-03-22T05:02:52.361Z,5.00
2023-03-22T05:05:20.060Z,5.70
2023-03-22T05:07:47.710Z,5.60
2023-03-22T05:13:18.703Z,6.47
2023-03-22T05:15:46.792Z,5.87
2023-03-22T05:18:17.875Z,6.37
2023-03-22T05:20:45.104Z,5.70
2023-03-22T05:23:15.948Z,6.50
2023-03-22T05:25:50.303Z,6.20
2023-03-22T05:28:28.828Z,6.30
2023-03-22T05:30:57.357Z,5.97
2023-03-22T05:38:10.018Z,5.50
2023-03-22T05:40:38.022Z,6.33
2023-03-22T05:43:06.310Z,5.77
2023-03-22T05:45:36.359Z,5.80
2023-03-22T05:48:03.915Z,5.80
2023-03-22T05:50:32.210Z,5.73
2023-03-22T05:53:00.326Z,5.63
2023-03-22T06:01:38.812Z,6.57
2023-03-22T06:04:08.611Z,5.60
2023-03-22T06:06:35.869Z,6.37
2023-03-22T06:09:16.364Z,6.13
2023-03-22T06:11:45.430Z,6.33
2023-03-22T06:14:14.926Z,6.00
2023-03-22T06:16:43.285Z,6.13
2023-03-22T06:22:11.597Z,7.57
2023-03-22T06:24:40.243Z,7.83
2023-03-22T06:27:10.680Z,6.43
2023-03-22T06:29:40.939Z,7.40
2023-03-22T06:32:17.214Z,8.03
2023-03-22T06:34:48.484Z,8.17
2023-03-22T06:37:19.170Z,8.60
2023-03-22T06:42:41.340Z,8.73
2023-03-22T06:45:09.316Z,8.47
2023-03-22T06:47:36.874Z,8.30
2023-03-22T06:50:09.970Z,8.17
2023-03-22T06:52:37.736Z,9.70
2023-03-22T06:55:13.626Z,8.00
2023-03-22T06:58:01.694Z,7.47
2023-03-22T07:00:35.133Z,8.20
2023-03-22T07:10:53.998Z,7.73
2023-03-22T07:13:37.761Z,5.90
2023-03-22T07:16:06.024Z,6.03
2023-03-22T07:18:33.708Z,6.00
2023-03-22T07:21:12.936Z,6.53
2023-03-22T07:23:55.950Z,6.20
2023-03-22T07:31:28.847Z,5.67
2023-03-22T07:33:56.117Z,5.57
2023-03-22T07:36:25.314Z,5.57
2023-03-22T07:38:52.778Z,4.93
2023-03-22T07:41:23.659Z,5.33
2023-03-22T07:44:02.240Z,5.10
2023-03-22T07:46:38.285Z,5.10
2023-03-22T07:54:32.226Z,4.90
2023-03-22T07:57:01.238Z,5.70
2023-03-22T07:59:29.404Z,4.33
2023-03-22T08:01:56.547Z,4.13
2023-03-22T08:04:30.868Z,4.30
2023-03-22T08:07:00.321Z,3.77
2023-03-22T08:09:29.071Z,3.77
2023-03-22T08:12:05.769Z,4.17
2023-03-22T08:20:12.889Z,3.10
2023-03-22T08:22:42.992Z,3.93
2023-03-22T08:25:13.424Z,3.10
2023-03-22T08:27:50.336Z,3.33
2023-03-22T08:30:18.082Z,3.60
2023-03-22T08:32:54.727Z,3.30
2023-03-22T08:35:24.136Z,3.90
2023-03-22T08:43:06.014Z,3.63
2023-03-22T08:45:33.696Z,3.60
2023-03-22T08:48:09.847Z,3.83
2023-03-22T08:50:40.221Z,3.10
2023-03-22T08:53:07.770Z,3.70
2023-03-22T08:56:02.745Z,3.90
2023-03-22T08:58:31.450Z,3.67
2023-03-22T09:03:47.781Z,3.87
2023-03-22T09:06:16.578Z,3.77
2023-03-22T09:08:45.712Z,4.10
2023-03-22T09:11:14.645Z,3.17
2023-03-22T09:13:42.544Z,3.33
2023-03-22T09:16:11.023Z,3.43
2023-03-22T09:18:39.986Z,3.50
2023-03-22T09:23:50.195Z,3.07
2023-03-22T09:26:20.001Z,3.13
2023-03-22T09:28:55.060Z,2.93
2023-03-22T09:31:22.392Z,3.40
2023-03-22T09:33:49.914Z,2.73
2023-03-22T09:36:17.356Z,2.50
2023-03-22T09:39:07.356Z,2.60
2023-03-22T09:46:41.163Z,3.10
2023-03-22T09:49:17.350Z,2.90
2023-03-22T09:51:47.098Z,3.00
2023-03-22T09:54:17.989Z,2.43
2023-03-22T09:56:51.244Z,3.07
2023-03-22T09:59:24.587Z,3.07
2023-03-22T10:01:57.444Z,2.50
2023-03-22T10:10:02.820Z,2.80
2023-03-22T10:12:34.737Z,2.60
2023-03-22T10:15:06.880Z,2.27
2023-03-22T10:17:37.971Z,2.63
2023-03-22T10:20:09.029Z,3.00
2023-03-22T10:22:52.188Z,2.70
2023-03-22T10:30:56.304Z,2.90
2023-03-22T10:33:37.939Z,2.43
2023-03-22T10:36:10.071Z,2.73
2023-03-22T10:38:47.630Z,2.80
2023-03-22T10:41:18.696Z,2.77
2023-03-22T10:43:49.191Z,2.57
2023-03-22T10:46:21.826Z,2.20
2023-03-22T10:53:52.222Z,2.30
2023-03-22T10:56:23.571Z,2.23
2023-03-22T10:58:51.695Z,1.87
2023-03-22T11:01:27.944Z,2.43
2023-03-22T11:04:01.744Z,2.30
2023-03-22T11:06:36.203Z,2.57
2023-03-22T11:12:19.692Z,2.17
2023-03-22T11:14:47.235Z,1.70
2023-03-22T11:17:26.763Z,1.70
2023-03-22T11:20:07.755Z,1.67
2023-03-22T11:22:38.447Z,1.63
2023-03-22T11:25:17.049Z,1.53
2023-03-22T11:28:06.094Z,1.43
2023-03-22T11:35:10.102Z,1.90
2023-03-22T11:37:41.269Z,1.57
2023-03-22T11:40:16.180Z,1.53
2023-03-22T11:42:45.102Z,1.50
2023-03-22T11:45:17.299Z,1.90
2023-03-22T11:47:53.227Z,1.37
2023-03-22T11:50:28.303Z,1.20
2023-03-22T11:58:03.445Z,1.77
2023-03-22T12:00:38.465Z,1.13
2023-03-22T12:03:10.540Z,1.40
2023-03-22T12:05:41.825Z,1.40
2023-03-22T12:08:17.474Z,1.37
2023-03-22T12:11:02.280Z,1.93
2023-03-22T12:19:26.815Z,1.30
2023-03-22T12:21:55.772Z,1.13
2023-03-22T12:24:27.710Z,1.20
2023-03-22T12:27:01.263Z,1.20
2023-03-22T12:29:35.803Z,1.53
2023-03-22T12:32:14.393Z,1.20
2023-03-22T12:34:47.255Z,1.50
2023-03-22T12:40:21.313Z,1.20
2023-03-22T12:43:01.308Z,1.47
2023-03-22T12:45:31.461Z,1.20
2023-03-22T12:48:03.884Z,1.50
2023-03-22T12:50:36.392Z,1.30
2023-03-22T12:53:04.714Z,1.03
2023-03-22T12:55:37.611Z,1.80
2023-03-22T13:02:37.899Z,1.17
2023-03-22T13:05:08.853Z,0.93
2023-03-22T13:07:53.530Z,1.33
2023-03-22T13:10:57.974Z,1.07
2023-03-22T13:13:43.106Z,1.10
2023-03-22T13:16:22.042Z,1.60
2023-03-22T13:21:49.722Z,1.70
2023-03-22T13:24:23.663Z,1.10
2023-03-22T13:26:56.072Z,1.00
2023-03-22T13:29:25.458Z,1.27
2023-03-22T13:32:01.018Z,1.27
2023-03-22T13:34:37.770Z,1.30
2023-03-22T13:37:12.873Z,1.13
2023-03-22T13:43:49.594Z,0.70
2023-03-22T13:46:43.748Z,0.70
2023-03-22T13:49:45.978Z,1.10
2023-03-22T13:52:36.760Z,0.90
2023-03-22T13:55:13.814Z,0.67
2023-03-22T13:57:50.358Z,0.93
2023-03-22T14:06:15.821Z,0.93
2023-03-22T14:08:46.082Z,0.93
2023-03-22T14:11:24.354Z,0.70
2023-03-22T14:13:55.673Z,0.63
2023-03-22T14:16:36.385Z,0.90
2023-03-22T14:19:06.546Z,0.60
2023-03-22T14:21:37.295Z,0.70
